createdAt,value
2019-03-19T00:01:39.842Z,4.08
2019-03-19T00:04:07.210Z,3.60
2019-03-19T00:06:34.602Z,3.15
2019-03-19T00:09:02.381Z,4.00
2019-03-19T00:11:29.923Z,3.67
2019-03-19T00:13:57.300Z,3.58
2019-03-19T00:16:24.689Z,3.42
2019-03-19T00:18:52.084Z,3.12
2019-03-19T00:21:19.463Z,3.70
2019-03-19T00:23:46.845Z,3.22
2019-03-19T00:26:14.238Z,4.28
2019-03-19T00:28:41.600Z,3.22
2019-03-19T00:31:08.992Z,4.15
2019-03-19T00:33:36.374Z,3.12
2019-03-19T00:36:03.768Z,3.12
2019-03-19T00:38:31.165Z,3.15
2019-03-19T00:40:58.568Z,3.85
2019-03-19T00:43:25.947Z,3.47
2019-03-19T00:45:53.345Z,3.40
2019-03-19T00:48:20.706Z,4.05
2019-03-19T00:50:48.113Z,3.15
2019-03-19T00:53:15.529Z,3.67
2019-03-19T00:55:42.910Z,3.87
2019-03-19T00:58:10.277Z,3.70
2019-03-19T01:00:37.686Z,3.10
2019-03-19T01:03:05.094Z,3.25
2019-03-19T01:05:32.460Z,2.85
2019-03-19T01:07:59.842Z,3.40
2019-03-19T01:10:27.653Z,3.50
2019-03-19T01:12:55.014Z,3.70
2019-03-19T01:15:22.409Z,3.40
2019-03-19T01:17:49.776Z,3.83
2019-03-19T01:20:17.141Z,3.52
2019-03-19T01:22:44.538Z,3.92
2019-03-19T01:25:11.902Z,3.90
2019-03-19T01:27:39.304Z,2.95
2019-03-19T01:30:08.268Z,4.00
2019-03-19T01:32:35.646Z,3.87
2019-03-19T01:35:03.502Z,2.92
2019-03-19T01:37:30.889Z,3.35
2019-03-19T01:39:58.255Z,3.08
2019-03-19T01:42:25.653Z,3.37
2019-03-19T01:44:53.015Z,3.58
2019-03-19T01:47:20.422Z,3.40
2019-03-19T01:49:47.808Z,3.58
2019-03-19T01:52:15.200Z,2.95
2019-03-19T01:54:42.648Z,3.30
2019-03-19T01:57:10.028Z,3.47
2019-03-19T01:59:37.426Z,4.08
2019-03-19T02:02:04.822Z,3.02
2019-03-19T02:04:32.200Z,3.85
2019-03-19T02:06:59.598Z,3.27
2019-03-19T02:09:26.982Z,2.98
2019-03-19T02:11:54.350Z,3.50
2019-03-19T02:14:21.766Z,3.10
2019-03-19T02:16:49.157Z,2.70
2019-03-19T02:19:16.657Z,3.27
2019-03-19T02:21:44.022Z,3.87
2019-03-19T02:24:11.412Z,3.60
2019-03-19T02:26:38.816Z,3.52
2019-03-19T02:29:06.186Z,3.67
2019-03-19T02:31:33.698Z,3.55
2019-03-19T02:34:01.118Z,3.58
2019-03-19T02:36:28.549Z,3.42
2019-03-19T02:38:55.922Z,4.33
2019-03-19T02:41:23.309Z,3.00
2019-03-19T02:43:50.698Z,3.42
2019-03-19T02:46:18.160Z,3.10
2019-03-19T02:48:45.649Z,3.27
2019-03-19T02:51:13.050Z,2.98
2019-03-19T02:53:40.458Z,3.10
2019-03-19T02:56:07.829Z,3.42
2019-03-19T02:58:35.200Z,3.15
2019-03-19T03:01:02.590Z,3.62
2019-03-19T03:03:29.983Z,3.25
2019-03-19T03:05:57.362Z,3.40
2019-03-19T03:08:24.722Z,3.42
2019-03-19T03:10:52.096Z,3.87
2019-03-19T03:13:19.493Z,3.55
2019-03-19T03:15:46.894Z,3.45
2019-03-19T03:18:14.728Z,3.65
2019-03-19T03:20:42.172Z,4.28
2019-03-19T03:23:09.635Z,3.75
2019-03-19T03:25:37.058Z,3.47
2019-03-19T03:28:04.724Z,3.17
2019-03-19T03:30:32.099Z,3.45
2019-03-19T03:32:59.565Z,3.30
2019-03-19T03:35:26.937Z,2.90
2019-03-19T03:37:54.302Z,4.17
2019-03-19T03:40:21.715Z,3.80
2019-03-19T03:42:49.066Z,4.03
2019-03-19T03:45:18.001Z,3.30
2019-03-19T03:47:45.439Z,3.42
2019-03-19T03:50:13.509Z,3.27
2019-03-19T03:52:40.956Z,3.50
2019-03-19T03:55:09.582Z,4.15
2019-03-19T03:57:36.983Z,3.40
2019-03-19T04:00:05.911Z,2.80
2019-03-19T04:02:33.392Z,3.30
2019-03-19T04:05:00.859Z,3.98
2019-03-19T04:07:28.229Z,3.27
2019-03-19T04:09:55.659Z,3.87
2019-03-19T04:12:23.042Z,3.30
2019-03-19T04:14:50.413Z,3.92
2019-03-19T04:17:17.797Z,2.52
2019-03-19T04:19:45.248Z,3.02
2019-03-19T04:22:15.775Z,3.35
2019-03-19T04:24:42.114Z,3.52
2019-03-19T04:27:15.774Z,3.05
2019-03-19T04:29:38.705Z,3.27
2019-03-19T04:32:06.082Z,3.30
2019-03-19T04:34:33.568Z,2.58
2019-03-19T04:37:01.024Z,3.37
2019-03-19T04:39:28.402Z,3.72
2019-03-19T04:41:55.790Z,2.75
2019-03-19T04:44:23.191Z,3.45
2019-03-19T04:46:50.648Z,3.45
2019-03-19T04:49:18.016Z,3.35
2019-03-19T04:51:45.496Z,3.37
2019-03-19T04:54:12.893Z,3.10
2019-03-19T04:56:40.291Z,3.33
2019-03-19T04:59:07.655Z,3.37
2019-03-19T05:01:35.052Z,3.72
2019-03-19T05:04:02.422Z,3.50
2019-03-19T05:06:29.824Z,3.33
2019-03-19T05:08:57.238Z,3.10
2019-03-19T05:11:24.638Z,2.98
2019-03-19T05:13:52.021Z,3.33
2019-03-19T05:16:19.393Z,2.98
2019-03-19T05:18:46.782Z,3.50
2019-03-19T05:21:14.185Z,3.20
2019-03-19T05:23:41.634Z,3.40
2019-03-19T05:26:09.031Z,3.20
2019-03-19T05:28:36.430Z,2.90
2019-03-19T05:31:03.825Z,3.00
2019-03-19T05:33:31.206Z,3.70
2019-03-19T05:35:58.593Z,2.67
2019-03-19T05:38:25.977Z,2.77
2019-03-19T05:40:53.439Z,4.03
2019-03-19T05:43:20.816Z,3.58
2019-03-19T05:45:48.287Z,3.27
2019-03-19T05:48:15.745Z,3.25
2019-03-19T05:50:43.117Z,3.17
2019-03-19T05:53:10.523Z,3.50
2019-03-19T05:55:37.959Z,3.90
2019-03-19T05:58:05.318Z,4.20
2019-03-19T06:00:37.277Z,3.95
2019-03-19T06:03:04.687Z,4.05
2019-03-19T06:05:32.060Z,4.78
2019-03-19T06:07:59.636Z,3.22
2019-03-19T06:10:27.040Z,3.90
2019-03-19T06:12:54.489Z,3.20
2019-03-19T06:15:21.891Z,3.15
2019-03-19T06:17:49.249Z,3.30
2019-03-19T06:20:17.216Z,3.85
2019-03-19T06:22:44.600Z,4.90
2019-03-19T06:25:12.441Z,3.83
2019-03-19T06:27:39.898Z,3.10
2019-03-19T06:30:22.998Z,3.42
2019-03-19T06:32:50.365Z,3.75
2019-03-19T06:35:17.749Z,3.00
2019-03-19T06:37:45.207Z,3.92
2019-03-19T06:40:15.885Z,3.17
2019-03-19T06:42:43.283Z,3.87
2019-03-19T06:45:11.952Z,3.00
2019-03-19T06:47:39.336Z,3.02
2019-03-19T06:50:08.355Z,3.08
2019-03-19T06:52:35.719Z,3.25
2019-03-19T06:55:03.121Z,3.00
2019-03-19T06:57:38.901Z,2.92
2019-03-19T06:59:59.675Z,3.22
2019-03-19T07:02:27.043Z,3.17
2019-03-19T07:04:54.443Z,4.05
2019-03-19T07:07:21.817Z,3.80
2019-03-19T07:09:49.193Z,3.95
2019-03-19T07:12:16.696Z,4.22
2019-03-19T07:14:44.087Z,4.00
2019-03-19T07:17:11.465Z,3.40
2019-03-19T07:19:38.874Z,3.33
2019-03-19T07:22:06.291Z,3.40
2019-03-19T07:24:33.657Z,3.70
2019-03-19T07:27:01.083Z,3.70
2019-03-19T07:29:28.459Z,3.55
2019-03-19T07:31:55.850Z,3.60
2019-03-19T07:34:23.327Z,3.87
2019-03-19T07:36:50.813Z,3.67
2019-03-19T07:39:18.253Z,3.55
2019-03-19T07:41:45.655Z,3.58
2019-03-19T07:44:13.057Z,4.03
2019-03-19T07:46:40.496Z,3.17
2019-03-19T07:49:07.937Z,4.47
2019-03-19T07:51:35.619Z,3.80
2019-03-19T07:54:02.988Z,3.50
2019-03-19T07:56:30.392Z,4.15
2019-03-19T07:58:57.766Z,5.03
2019-03-19T08:01:25.169Z,3.00
2019-03-19T08:03:52.577Z,3.90
2019-03-19T08:06:19.971Z,4.13
2019-03-19T08:08:47.379Z,3.60
2019-03-19T08:11:16.772Z,3.92
2019-03-19T08:13:43.951Z,3.20
2019-03-19T08:16:11.365Z,3.33
2019-03-19T08:18:38.769Z,3.45
2019-03-19T08:21:06.184Z,4.55
2019-03-19T08:23:33.611Z,3.80
2019-03-19T08:26:01.019Z,3.62
2019-03-19T08:28:28.429Z,3.72
2019-03-19T08:30:55.912Z,4.43
2019-03-19T08:33:23.334Z,3.73
2019-03-19T08:35:50.781Z,3.47
2019-03-19T08:38:18.202Z,4.20
2019-03-19T08:40:45.565Z,3.17
2019-03-19T08:43:12.944Z,3.50
2019-03-19T08:45:40.421Z,3.20
2019-03-19T08:48:07.811Z,3.37
2019-03-19T08:50:35.245Z,4.58
2019-03-19T08:53:02.679Z,4.30
2019-03-19T08:55:30.109Z,3.33
2019-03-19T08:57:57.678Z,3.10
2019-03-19T09:00:25.751Z,3.40
2019-03-19T09:02:53.166Z,3.60
2019-03-19T09:05:20.946Z,4.30
2019-03-19T09:07:48.320Z,4.90
2019-03-19T09:10:17.238Z,3.40
2019-03-19T09:12:44.637Z,4.00
2019-03-19T09:15:13.561Z,5.07
2019-03-19T09:17:40.987Z,3.70
2019-03-19T09:20:12.495Z,3.03
2019-03-19T09:22:39.924Z,3.83
2019-03-19T09:25:08.528Z,3.60
2019-03-19T09:27:35.933Z,4.20
2019-03-19T09:30:04.203Z,4.17
2019-03-19T09:32:31.595Z,4.30
2019-03-19T09:34:59.043Z,3.83
2019-03-19T09:37:26.497Z,3.30
2019-03-19T09:39:53.903Z,3.80
2019-03-19T09:42:21.283Z,3.30
2019-03-19T09:44:58.236Z,3.13
2019-03-19T09:47:17.843Z,3.90
2019-03-19T09:49:45.219Z,2.60
2019-03-19T09:52:12.665Z,2.93
2019-03-19T09:54:40.069Z,2.33
2019-03-19T09:57:07.452Z,3.17
2019-03-19T09:59:34.846Z,2.93
2019-03-19T10:02:03.177Z,2.60
2019-03-19T10:04:30.620Z,3.53
2019-03-19T10:07:05.734Z,2.90
2019-03-19T10:09:27.183Z,3.40
2019-03-19T10:11:54.549Z,2.97
2019-03-19T10:14:21.927Z,2.50
2019-03-19T10:16:49.333Z,2.63
2019-03-19T10:19:16.705Z,2.87
2019-03-19T10:21:44.091Z,2.90
2019-03-19T10:24:11.496Z,2.90
2019-03-19T10:26:38.863Z,2.80
2019-03-19T10:29:06.269Z,2.43
2019-03-19T10:31:33.655Z,2.63
2019-03-19T10:34:01.009Z,2.53
2019-03-19T10:36:28.375Z,2.37
2019-03-19T10:38:55.784Z,2.70
2019-03-19T10:41:23.193Z,3.10
2019-03-19T10:43:50.644Z,3.27
2019-03-19T10:46:18.209Z,2.20
2019-03-19T10:48:45.571Z,3.80
2019-03-19T10:51:12.967Z,2.50
2019-03-19T10:53:40.377Z,3.10
2019-03-19T10:56:07.759Z,2.77
2019-03-19T10:58:35.178Z,2.13
2019-03-19T11:01:02.670Z,3.13
2019-03-19T11:03:30.075Z,4.30
2019-03-19T11:05:57.485Z,2.90
2019-03-19T11:08:24.876Z,2.77
2019-03-19T11:10:52.274Z,2.80
2019-03-19T11:13:19.657Z,2.73
2019-03-19T11:15:47.040Z,2.90
2019-03-19T11:18:14.408Z,2.60
2019-03-19T11:20:41.777Z,2.80
2019-03-19T11:23:09.167Z,2.20
2019-03-19T11:25:36.529Z,3.20
2019-03-19T11:28:04.076Z,2.50
2019-03-19T11:30:31.855Z,3.10
2019-03-19T11:32:59.341Z,3.20
2019-03-19T11:35:26.727Z,3.40
2019-03-19T11:37:54.163Z,2.53
2019-03-19T11:40:21.998Z,3.50
2019-03-19T11:42:49.568Z,2.90
2019-03-19T11:45:17.865Z,2.50
2019-03-19T11:47:45.330Z,3.00
2019-03-19T11:50:16.524Z,2.83
2019-03-19T11:52:43.907Z,2.50
2019-03-19T11:55:12.900Z,2.33
2019-03-19T11:57:40.265Z,2.83
2019-03-19T12:00:12.103Z,3.17
2019-03-19T12:02:39.532Z,3.00
2019-03-19T12:05:08.627Z,2.97
2019-03-19T12:07:36.036Z,2.90
2019-03-19T12:10:04.993Z,3.43
2019-03-19T12:12:32.409Z,3.93
2019-03-19T12:14:59.782Z,2.50
2019-03-19T12:17:27.478Z,2.33
2019-03-19T12:19:55.014Z,2.47
2019-03-19T12:22:22.396Z,3.03
2019-03-19T12:24:49.880Z,2.90
2019-03-19T12:27:17.237Z,2.80
2019-03-19T12:29:44.619Z,2.90
2019-03-19T12:32:11.992Z,2.50
2019-03-19T12:34:39.388Z,2.40
2019-03-19T12:37:06.776Z,2.03
2019-03-19T12:39:34.136Z,2.20
2019-03-19T12:42:01.512Z,2.87
2019-03-19T12:44:28.900Z,4.90
2019-03-19T12:46:56.272Z,3.10
2019-03-19T12:49:23.713Z,2.77
2019-03-19T12:51:51.161Z,2.50
2019-03-19T12:54:18.565Z,2.60
2019-03-19T12:56:45.957Z,3.00
2019-03-19T12:59:20.130Z,1.67
2019-03-19T13:01:42.435Z,2.63
2019-03-19T13:04:09.845Z,3.00
2019-03-19T13:06:37.314Z,3.27
2019-03-19T13:09:06.091Z,2.23
2019-03-19T13:11:33.469Z,2.60
2019-03-19T13:14:00.849Z,2.37
2019-03-19T13:16:28.260Z,2.53
2019-03-19T13:18:55.653Z,3.13
2019-03-19T13:21:23.014Z,2.53
2019-03-19T13:23:50.443Z,2.40
2019-03-19T13:26:17.961Z,2.00
2019-03-19T13:28:45.339Z,2.37
2019-03-19T13:31:12.742Z,2.40
2019-03-19T13:33:40.126Z,2.30
2019-03-19T13:36:07.498Z,2.67
2019-03-19T13:38:34.903Z,2.60
2019-03-19T13:41:02.272Z,2.23
2019-03-19T13:43:29.703Z,12.70
2019-03-19T13:45:57.191Z,2.23
2019-03-19T13:48:24.630Z,2.90
2019-03-19T13:50:52.040Z,2.70
2019-03-19T13:53:19.396Z,2.33
2019-03-19T13:55:47.013Z,2.43
2019-03-19T13:58:14.453Z,2.90
2019-03-19T14:00:41.811Z,2.63
2019-03-19T14:03:09.237Z,2.80
2019-03-19T14:05:36.615Z,2.13
2019-03-19T14:08:04.058Z,2.60
2019-03-19T14:10:31.448Z,2.67
2019-03-19T14:12:58.882Z,3.40
2019-03-19T14:15:27.053Z,2.83
2019-03-19T14:17:54.439Z,2.37
2019-03-19T14:20:21.832Z,2.67
2019-03-19T14:22:49.200Z,2.33
2019-03-19T14:25:16.981Z,2.90
2019-03-19T14:27:44.636Z,2.50
2019-03-19T14:30:19.318Z,2.70
2019-03-19T14:32:46.715Z,2.17
2019-03-19T14:35:14.237Z,2.60
2019-03-19T14:37:43.849Z,2.83
2019-03-19T14:40:12.490Z,3.50
2019-03-19T14:42:39.892Z,2.23
2019-03-19T14:45:08.229Z,3.37
2019-03-19T14:47:35.660Z,4.83
2019-03-19T14:50:04.182Z,3.60
2019-03-19T14:52:31.575Z,3.20
2019-03-19T14:54:58.945Z,6.37
2019-03-19T14:57:26.333Z,6.40
2019-03-19T14:59:53.729Z,3.37
2019-03-19T15:02:21.161Z,2.83
2019-03-19T15:04:48.567Z,3.30
2019-03-19T15:07:16.026Z,2.87
2019-03-19T15:09:43.456Z,3.00
2019-03-19T15:12:10.894Z,2.90
2019-03-19T15:14:38.278Z,2.83
2019-03-19T15:17:05.662Z,2.83
2019-03-19T15:19:33.055Z,5.53
2019-03-19T15:22:00.474Z,4.50
2019-03-19T15:24:27.899Z,2.97
2019-03-19T15:26:55.293Z,3.23
2019-03-19T15:29:22.670Z,2.90
2019-03-19T15:31:50.094Z,2.43
2019-03-19T15:34:20.462Z,4.13
2019-03-19T15:36:47.810Z,2.20
2019-03-19T15:39:15.202Z,2.87
2019-03-19T15:41:42.584Z,3.93
2019-03-19T15:44:09.958Z,2.90
2019-03-19T15:46:37.354Z,3.20
2019-03-19T15:49:05.039Z,3.30
2019-03-19T15:51:32.438Z,3.23
2019-03-19T15:54:01.491Z,2.90
2019-03-19T15:56:29.101Z,3.90
2019-03-19T15:58:56.542Z,2.63
2019-03-19T16:01:23.917Z,2.50
2019-03-19T16:03:51.306Z,2.93
2019-03-19T16:06:18.670Z,2.50
2019-03-19T16:08:46.049Z,3.40
2019-03-19T16:11:13.467Z,3.07
2019-03-19T16:13:40.845Z,2.90
2019-03-19T16:16:08.222Z,2.60
2019-03-19T16:18:35.619Z,2.63
2019-03-19T16:21:02.994Z,2.50
2019-03-19T16:23:30.403Z,3.13
2019-03-19T16:25:57.882Z,3.00
2019-03-19T16:28:25.279Z,3.53
2019-03-19T16:30:52.644Z,2.90
2019-03-19T16:33:20.042Z,3.37
2019-03-19T16:35:47.515Z,2.77
2019-03-19T16:38:14.949Z,2.70
2019-03-19T16:40:42.362Z,3.00
2019-03-19T16:43:09.830Z,3.10
2019-03-19T16:45:37.203Z,3.47
2019-03-19T16:48:04.735Z,3.60
2019-03-19T16:50:32.145Z,2.60
2019-03-19T16:52:59.514Z,2.83
2019-03-19T16:55:26.890Z,3.03
2019-03-19T16:57:54.302Z,3.20
2019-03-19T17:00:22.259Z,2.60
2019-03-19T17:02:49.650Z,3.40
2019-03-19T17:05:17.382Z,3.07
2019-03-19T17:07:44.761Z,3.07
2019-03-19T17:10:13.217Z,2.93
2019-03-19T17:12:42.007Z,2.70
2019-03-19T17:15:10.923Z,2.70
2019-03-19T17:17:38.308Z,3.10
2019-03-19T17:20:07.094Z,3.47
2019-03-19T17:22:34.539Z,3.17
2019-03-19T17:25:01.959Z,2.90
2019-03-19T17:27:29.416Z,3.40
2019-03-19T17:29:56.837Z,3.70
2019-03-19T17:32:24.260Z,3.67
2019-03-19T17:34:51.689Z,3.43
2019-03-19T17:37:19.156Z,3.60
2019-03-19T17:39:46.604Z,3.40
2019-03-19T17:42:14.007Z,3.23
2019-03-19T17:44:42.923Z,3.00
2019-03-19T17:47:10.409Z,3.10
2019-03-19T17:49:37.800Z,3.10
2019-03-19T17:52:05.169Z,3.33
2019-03-19T17:54:32.577Z,3.13
2019-03-19T17:56:59.939Z,4.40
2019-03-19T17:59:27.360Z,13.90
2019-03-19T18:01:54.798Z,4.83
2019-03-19T18:04:22.156Z,5.47
2019-03-19T18:06:49.551Z,4.43
2019-03-19T18:09:16.935Z,5.10
2019-03-19T18:11:44.345Z,4.80
2019-03-19T18:14:11.765Z,4.33
2019-03-19T18:16:39.238Z,4.10
2019-03-19T18:19:06.727Z,4.80
2019-03-19T18:21:34.114Z,4.23
2019-03-19T18:24:01.519Z,4.70
2019-03-19T18:26:28.929Z,4.03
2019-03-19T18:28:56.298Z,5.13
2019-03-19T18:31:23.761Z,6.60
2019-03-19T18:33:51.216Z,5.20
2019-03-19T18:36:18.593Z,4.90
2019-03-19T18:38:46.054Z,5.77
2019-03-19T18:41:13.491Z,4.63
2019-03-19T18:43:40.903Z,5.03
2019-03-19T18:46:08.293Z,5.43
2019-03-19T18:48:35.654Z,5.33
2019-03-19T18:51:03.045Z,4.20
2019-03-19T18:53:30.422Z,5.07
2019-03-19T18:55:57.834Z,5.93
2019-03-19T18:58:25.273Z,16.37
2019-03-19T19:00:52.659Z,6.50
2019-03-19T19:03:20.072Z,5.93
2019-03-19T19:05:47.467Z,5.80
2019-03-19T19:08:14.831Z,12.33
2019-03-19T19:10:42.307Z,5.20
2019-03-19T19:13:09.697Z,4.03
2019-03-19T19:15:37.058Z,4.40
2019-03-19T19:18:04.605Z,4.57
2019-03-19T19:20:32.041Z,5.77
2019-03-19T19:22:59.415Z,5.23
2019-03-19T19:25:26.852Z,7.07
2019-03-19T19:27:54.273Z,6.87
2019-03-19T19:30:22.273Z,6.57
2019-03-19T19:33:00.471Z,5.97
2019-03-19T19:35:18.767Z,8.47
2019-03-19T19:37:46.179Z,5.30
2019-03-19T19:40:14.435Z,6.73
2019-03-19T19:42:41.870Z,5.57
2019-03-19T19:45:15.660Z,6.47
2019-03-19T19:47:43.143Z,6.23
2019-03-19T19:50:12.051Z,6.07
2019-03-19T19:52:39.447Z,6.58
2019-03-19T19:55:08.215Z,6.97
2019-03-19T19:57:35.606Z,9.30
2019-03-19T20:00:04.629Z,7.05
2019-03-19T20:02:32.031Z,6.92
2019-03-19T20:05:03.324Z,5.40
2019-03-19T20:07:28.568Z,10.08
2019-03-19T20:09:55.963Z,5.05
2019-03-19T20:12:23.361Z,5.60
2019-03-19T20:14:50.763Z,5.25
2019-03-19T20:17:18.149Z,6.15
2019-03-19T20:19:45.609Z,7.22
2019-03-19T20:22:13.113Z,15.23
2019-03-19T20:24:40.504Z,7.10
2019-03-19T20:27:07.918Z,7.70
2019-03-19T20:29:37.158Z,7.20
2019-03-19T20:32:04.481Z,7.50
2019-03-19T20:34:31.914Z,7.65
2019-03-19T20:36:59.324Z,7.45
2019-03-19T20:39:26.743Z,6.80
2019-03-19T20:41:54.121Z,6.95
2019-03-19T20:44:21.502Z,12.30
2019-03-19T20:46:48.949Z,9.38
2019-03-19T20:49:17.658Z,11.43
2019-03-19T20:51:45.052Z,8.43
2019-03-19T20:54:12.440Z,8.40
2019-03-19T20:56:39.826Z,8.73
2019-03-19T20:59:07.245Z,7.00
2019-03-19T21:01:34.686Z,6.83
2019-03-19T21:04:02.066Z,6.40
2019-03-19T21:06:29.471Z,6.60
2019-03-19T21:08:56.842Z,5.17
2019-03-19T21:11:24.253Z,6.08
2019-03-19T21:13:51.758Z,7.47
2019-03-19T21:16:19.201Z,5.40
2019-03-19T21:18:46.605Z,6.65
2019-03-19T21:21:14.019Z,7.53
2019-03-19T21:23:41.430Z,8.15
2019-03-19T21:26:08.812Z,7.65
2019-03-19T21:28:36.215Z,7.42
2019-03-19T21:31:03.673Z,7.10
2019-03-19T21:33:31.076Z,6.05
2019-03-19T21:35:58.526Z,7.15
2019-03-19T21:38:25.894Z,6.87
2019-03-19T21:40:53.331Z,6.83
2019-03-19T21:43:20.776Z,5.65
2019-03-19T21:45:48.205Z,6.10
2019-03-19T21:48:15.605Z,5.58
2019-03-19T21:50:42.985Z,5.70
2019-03-19T21:53:10.371Z,5.10
2019-03-19T21:55:37.766Z,5.50
2019-03-19T21:58:05.150Z,5.25
2019-03-19T22:00:32.564Z,6.10
2019-03-19T22:02:59.942Z,5.47
2019-03-19T22:05:27.333Z,6.55
2019-03-19T22:07:54.732Z,6.47
2019-03-19T22:10:22.754Z,6.03
2019-03-19T22:12:50.163Z,6.30
2019-03-19T22:15:18.283Z,5.37
2019-03-19T22:17:45.696Z,6.20
2019-03-19T22:20:13.289Z,6.37
2019-03-19T22:22:40.729Z,6.65
2019-03-19T22:25:09.321Z,5.50
2019-03-19T22:27:36.758Z,5.87
2019-03-19T22:30:05.540Z,6.47
2019-03-19T22:32:32.973Z,6.33
2019-03-19T22:35:00.439Z,6.40
2019-03-19T22:37:27.887Z,7.08
2019-03-19T22:39:55.263Z,5.75
2019-03-19T22:42:22.666Z,6.17
2019-03-19T22:44:50.072Z,6.95
2019-03-19T22:47:17.495Z,6.90
2019-03-19T22:49:44.933Z,7.50
2019-03-19T22:52:12.305Z,5.45
2019-03-19T22:54:39.669Z,6.35
2019-03-19T22:57:07.094Z,5.92
2019-03-19T22:59:34.537Z,6.37
2019-03-19T23:02:01.929Z,5.83
2019-03-19T23:04:29.329Z,5.87
2019-03-19T23:06:56.717Z,6.78
2019-03-19T23:09:24.114Z,6.45
2019-03-19T23:11:51.495Z,5.47
2019-03-19T23:14:18.920Z,5.62
2019-03-19T23:16:46.327Z,5.75
2019-03-19T23:19:13.745Z,5.30
2019-03-19T23:21:41.117Z,4.70
2019-03-19T23:24:08.481Z,4.83
2019-03-19T23:26:35.884Z,5.37
2019-03-19T23:29:03.281Z,4.42
2019-03-19T23:31:30.653Z,4.95
2019-03-19T23:33:58.094Z,5.45
2019-03-19T23:36:25.476Z,5.25
2019-03-19T23:38:52.863Z,5.62
2019-03-19T23:41:20.510Z,5.50
2019-03-19T23:43:48.110Z,5.90
2019-03-19T23:46:15.515Z,5.50
2019-03-19T23:48:42.910Z,4.70
2019-03-19T23:51:10.331Z,4.95
2019-03-19T23:53:37.711Z,5.30
2019-03-19T23:56:05.162Z,4.30
2019-03-19T23:58:32.546Z,4.03
